Time;durP1;ratioP1;P1;durP2;ratioP2;P2;SDS_P1;SDS_P2;PMS_P1;PMS_P2;Temp;Humidity;BMP_temperature;BMP_pressure;BME280_temperature;BME280_humidity;BME280_pressure;Samples;Min_cycle;Max_cycle;Signal;HPM_P1;HPM_P2
2023/03/01 00:01:08;;;;;;;1.20;1.20;;;-1.30;99.90;;;;;;5072458;28;20683;-74
2023/03/01 00:03:34;;;;;;;1.30;1.30;;;-1.20;99.90;;;;;;5067151;28;20074;-74
2023/03/01 00:06:01;;;;;;;1.20;1.20;;;-1.20;99.90;;;;;;5055913;28;20143;-74
2023/03/01 00:08:28;;;;;;;1.20;1.20;;;-0.80;99.90;;;;;;5057005;28;20201;-75
2023/03/01 00:11:02;;;;;;;1.20;1.20;;;-0.90;99.90;;;;;;5069902;28;20043;-75
2023/03/01 00:13:28;;;;;;;1.30;1.30;;;-0.70;99.90;;;;;;5073801;28;20047;-75
2023/03/01 00:15:54;;;;;;;1.40;1.40;;;-0.60;99.90;;;;;;5072267;28;20052;-74
2023/03/01 00:18:19;;;;;;;1.60;1.50;;;-0.70;99.90;;;;;;5070774;28;20064;-74
2023/03/01 00:20:53;;;;;;;1.25;1.25;;;-0.70;99.90;;;;;;5071860;28;20060;-75
2023/03/01 00:23:19;;;;;;;1.20;1.20;;;-0.60;99.90;;;;;;5075008;28;20205;-75
2023/03/01 00:25:45;;;;;;;1.30;1.30;;;-0.50;99.90;;;;;;5072459;28;20075;-75
2023/03/01 00:28:10;;;;;;;1.30;1.30;;;-0.50;99.90;;;;;;5072165;28;20679;-75
2023/03/01 00:30:36;;;;;;;1.30;1.30;;;-0.50;99.90;;;;;;5074972;28;20050;-74
2023/03/01 00:33:02;;;;;;;1.27;1.27;;;-0.50;99.90;;;;;;5077993;28;20044;-75
2023/03/01 00:35:28;;;;;;;1.20;1.20;;;-0.60;99.90;;;;;;5074410;28;20106;-75
2023/03/01 00:37:57;;;;;;;1.50;1.40;;;-0.70;99.90;;;;;;5070871;28;20043;-75
2023/03/01 00:40:30;;;;;;;1.20;1.20;;;-0.70;99.90;;;;;;5076124;28;20117;-75
2023/03/01 00:42:56;;;;;;;1.50;1.40;;;-0.70;99.90;;;;;;5070244;28;20080;-75
2023/03/01 00:45:23;;;;;;;1.30;1.30;;;-0.60;99.90;;;;;;5072162;28;20136;-75
2023/03/01 00:47:50;;;;;;;1.30;1.30;;;-0.80;99.90;;;;;;5073686;28;20048;-75
2023/03/01 00:50:16;;;;;;;1.20;1.20;;;-0.60;99.90;;;;;;5075664;28;20685;-75
2023/03/01 00:52:42;;;;;;;1.25;1.25;;;-0.90;99.90;;;;;;5076968;28;20139;-75
2023/03/01 00:55:08;;;;;;;1.50;1.40;;;-1.00;99.90;;;;;;5077489;28;20044;-75
2023/03/01 00:57:33;;;;;;;1.30;1.30;;;-1.30;99.90;;;;;;5072009;28;20074;-75
2023/03/01 00:59:59;;;;;;;1.40;1.33;;;-1.30;99.90;;;;;;5076303;28;20052;-75
2023/03/01 01:02:25;;;;;;;1.40;1.40;;;-1.50;99.90;;;;;;5077509;28;20047;-75
2023/03/01 01:04:51;;;;;;;1.30;1.30;;;-1.40;99.90;;;;;;5076774;28;20056;-75
2023/03/01 01:07:19;;;;;;;1.30;1.30;;;-1.60;99.90;;;;;;5078169;28;20048;-75
2023/03/01 01:09:45;;;;;;;1.23;1.23;;;-1.50;99.90;;;;;;5081224;28;20141;-74
2023/03/01 01:12:12;;;;;;;1.20;1.20;;;-1.60;99.90;;;;;;5077886;28;20051;-75
2023/03/01 01:14:37;;;;;;;1.10;1.10;;;-1.60;99.90;;;;;;5078154;28;20044;-75
2023/03/01 01:17:04;;;;;;;1.20;1.20;;;-1.50;99.90;;;;;;5075267;28;20044;-75
2023/03/01 01:19:30;;;;;;;1.20;1.20;;;-1.60;99.90;;;;;;5076774;28;20044;-75
2023/03/01 01:21:55;;;;;;;1.20;1.20;;;-1.60;99.90;;;;;;5081029;28;20058;-75
2023/03/01 01:24:21;;;;;;;1.10;1.10;;;-1.50;99.90;;;;;;5078897;28;20052;-75
2023/03/01 01:26:47;;;;;;;1.20;1.20;;;-1.50;99.90;;;;;;5076183;28;20044;-75
2023/03/01 01:29:13;;;;;;;1.17;1.17;;;-1.60;99.90;;;;;;5076118;28;20516;-75
2023/03/01 01:31:41;;;;;;;1.10;1.10;;;-1.50;99.90;;;;;;5077620;28;20789;-75
2023/03/01 01:34:12;;;;;;;1.30;1.30;;;-1.50;99.90;;;;;;5076814;28;20036;-75
2023/03/01 01:36:38;;;;;;;1.20;1.20;;;-1.50;99.90;;;;;;5075252;28;20028;-75
2023/03/01 01:39:04;;;;;;;1.50;1.40;;;-1.60;99.90;;;;;;5075589;28;20051;-75
2023/03/01 01:41:30;;;;;;;1.65;1.55;;;-1.70;99.90;;;;;;5075350;28;20054;-75
2023/03/01 01:44:17;;;;;;;1.30;1.30;;;-1.60;99.90;;;;;;5076926;28;20688;-75
2023/03/01 01:47:05;;;;;;;1.60;1.50;;;-1.60;99.90;;;;;;5073027;28;20035;-75
2023/03/01 01:49:42;;;;;;;1.60;1.50;;;-1.60;99.90;;;;;;5063646;28;20052;-75
2023/03/01 01:52:20;;;;;;;1.35;1.35;;;-1.60;99.90;;;;;;5075318;28;20425;-75
2023/03/01 01:55:01;;;;;;;1.50;1.40;;;-1.60;99.90;;;;;;5079253;28;20067;-75
2023/03/01 01:57:35;;;;;;;1.50;1.40;;;-1.70;99.90;;;;;;5071810;28;20061;-75
2023/03/01 02:00:07;;;;;;;1.60;1.50;;;-1.70;99.90;;;;;;5073748;28;20764;-75
2023/03/01 02:02:32;;;;;;;1.60;1.50;;;-1.80;99.90;;;;;;5072288;28;20753;-75
2023/03/01 02:05:14;;;;;;;1.60;1.50;;;-1.80;99.90;;;;;;5079235;28;20040;-75
2023/03/01 02:07:42;;;;;;;1.40;1.40;;;-1.80;99.90;;;;;;5066898;28;21083;-75
2023/03/01 02:10:08;;;;;;;1.60;1.50;;;-1.90;99.90;;;;;;5060647;28;20051;-75
2023/03/01 02:12:39;;;;;;;1.60;1.50;;;-1.80;99.90;;;;;;5058781;28;20045;-75
2023/03/01 02:15:05;;;;;;;1.60;1.50;;;-1.80;99.90;;;;;;5061694;28;20036;-75
2023/03/01 02:17:32;;;;;;;1.50;1.40;;;-1.80;99.90;;;;;;5060158;28;20564;-75
2023/03/01 02:20:33;;;;;;;1.50;1.40;;;-1.80;99.90;;;;;;5062022;28;20048;-75
2023/03/01 02:22:59;;;;;;;1.23;1.23;;;-1.70;99.90;;;;;;5060020;28;20071;-75
2023/03/01 02:25:51;;;;;;;1.60;1.50;;;-1.80;99.90;;;;;;5062744;28;20070;-75
2023/03/01 02:28:17;;;;;;;1.50;1.40;;;-1.80;99.90;;;;;;5041810;28;20550;-74
2023/03/01 02:33:33;;;;;;;1.60;1.50;;;-1.90;99.90;;;;;;5057722;28;20405;-75
2023/03/01 02:36:09;;;;;;;1.40;1.40;;;-2.00;99.90;;;;;;5058370;28;20158;-74
2023/03/01 02:38:35;;;;;;;1.20;1.20;;;-2.10;99.90;;;;;;5059358;28;20127;-75
2023/03/01 02:41:02;;;;;;;1.30;1.30;;;-2.10;99.90;;;;;;5059269;28;20048;-74
2023/03/01 02:43:32;;;;;;;1.35;1.30;;;-2.20;99.90;;;;;;5057870;28;20056;-74
2023/03/01 02:46:03;;;;;;;1.50;1.40;;;-2.20;99.90;;;;;;5051012;28;20043;-76
2023/03/01 02:48:46;;;;;;;1.20;1.20;;;-2.20;99.90;;;;;;5044749;28;20058;-76
2023/03/01 02:51:28;;;;;;;1.20;1.20;;;-2.20;99.90;;;;;;5057060;28;20067;-77
2023/03/01 02:54:17;;;;;;;1.35;1.35;;;-2.20;99.90;;;;;;5059355;28;20044;-76
2023/03/01 02:56:43;;;;;;;1.00;1.00;;;-2.20;99.90;;;;;;5066146;28;20056;-76
2023/03/01 02:59:10;;;;;;;1.30;1.30;;;-2.10;99.90;;;;;;5062292;28;20090;-76
2023/03/01 03:01:36;;;;;;;1.33;1.33;;;-2.20;99.90;;;;;;5059401;28;20113;-74
2023/03/01 03:04:04;;;;;;;1.30;1.30;;;-2.20;99.90;;;;;;5060127;28;20048;-74
2023/03/01 03:06:30;;;;;;;1.20;1.20;;;-2.30;99.90;;;;;;5062698;28;20048;-74
2023/03/01 03:08:55;;;;;;;1.10;1.10;;;-2.20;99.90;;;;;;5059546;28;20495;-74
2023/03/01 03:11:21;;;;;;;1.50;1.40;;;-2.30;99.90;;;;;;5051120;28;20048;-74
2023/03/01 03:13:47;;;;;;;1.40;1.40;;;-2.30;99.90;;;;;;5052012;28;20130;-74
2023/03/01 03:16:14;;;;;;;1.30;1.30;;;-2.40;99.90;;;;;;5050568;28;20039;-74
2023/03/01 03:18:39;;;;;;;1.30;1.30;;;-2.40;99.90;;;;;;5048764;28;20224;-74
2023/03/01 03:21:10;;;;;;;1.20;1.20;;;-2.40;99.90;;;;;;5061412;28;20256;-74
2023/03/01 03:23:36;;;;;;;1.10;1.10;;;-2.50;99.90;;;;;;5057923;28;20047;-74
2023/03/01 03:26:04;;;;;;;1.30;1.30;;;-2.40;99.90;;;;;;5054168;28;20415;-74
2023/03/01 03:28:33;;;;;;;1.10;1.10;;;-2.50;99.90;;;;;;5050433;28;20300;-74
2023/03/01 03:31:03;;;;;;;1.40;1.40;;;-2.50;99.90;;;;;;5053248;28;20050;-74
2023/03/01 03:33:32;;;;;;;1.20;1.20;;;-2.50;99.90;;;;;;5053954;28;20729;-74
2023/03/01 03:35:58;;;;;;;1.08;1.08;;;-2.50;99.90;;;;;;5047962;28;20101;-74
2023/03/01 03:38:24;;;;;;;1.10;1.10;;;-2.40;99.90;;;;;;5055270;28;20455;-74
2023/03/01 03:41:11;;;;;;;1.50;1.40;;;-2.50;99.90;;;;;;5057251;28;20865;-74
2023/03/01 03:43:38;;;;;;;1.10;1.10;;;-2.50;99.90;;;;;;5062758;28;20050;-74
2023/03/01 03:46:05;;;;;;;1.10;1.10;;;-2.40;99.90;;;;;;5066084;28;20043;-74
2023/03/01 03:48:34;;;;;;;1.30;1.30;;;-2.60;99.90;;;;;;5075042;28;20044;-74
2023/03/01 03:50:59;;;;;;;1.10;1.10;;;-2.60;99.90;;;;;;5075414;28;20055;-74
2023/03/01 03:53:27;;;;;;;1.00;1.00;;;-2.50;99.90;;;;;;5074665;28;20044;-74
2023/03/01 03:55:53;;;;;;;1.20;1.20;;;-2.40;99.90;;;;;;5064503;28;20530;-74
2023/03/01 03:58:21;;;;;;;1.50;1.40;;;-2.40;99.90;;;;;;5056786;28;20058;-74
2023/03/01 04:00:49;;;;;;;1.30;1.30;;;-2.50;99.90;;;;;;5059241;28;20044;-74
2023/03/01 04:03:18;;;;;;;1.35;1.35;;;-2.50;99.90;;;;;;5058058;28;20100;-74
2023/03/01 04:05:44;;;;;;;1.30;1.30;;;-2.50;99.90;;;;;;5055653;28;20735;-74
2023/03/01 04:08:11;;;;;;;1.30;1.30;;;-2.40;99.90;;;;;;5063982;28;20044;-74
2023/03/01 04:10:38;;;;;;;1.05;1.05;;;-2.40;99.90;;;;;;5065400;28;20475;-74
2023/03/01 04:13:06;;;;;;;1.30;1.30;;;-2.50;99.90;;;;;;5060432;28;20118;-74
2023/03/01 04:15:33;;;;;;;1.10;1.10;;;-2.40;99.90;;;;;;5059763;28;20076;-74
2023/03/01 04:17:59;;;;;;;1.30;1.30;;;-2.40;99.90;;;;;;5059190;28;20640;-74
2023/03/01 04:20:28;;;;;;;1.20;1.20;;;-2.60;99.90;;;;;;5058950;28;20051;-74
2023/03/01 04:23:23;;;;;;;1.08;1.08;;;-2.60;99.90;;;;;;5056767;28;20085;-74
2023/03/01 04:26:13;;;;;;;1.20;1.20;;;-2.60;99.90;;;;;;5056355;28;20124;-74
2023/03/01 04:28:42;;;;;;;1.10;1.10;;;-2.70;99.90;;;;;;5062532;28;20032;-74
2023/03/01 04:31:15;;;;;;;1.25;1.25;;;-2.70;99.90;;;;;;5061165;28;20076;-74
2023/03/01 04:33:42;;;;;;;1.30;1.30;;;-2.60;99.90;;;;;;5062308;28;20139;-74
2023/03/01 04:36:09;;;;;;;1.20;1.20;;;-2.60;99.90;;;;;;5057229;28;20058;-74
2023/03/01 04:38:39;;;;;;;1.05;1.05;;;-2.60;99.90;;;;;;5059528;28;20529;-74
2023/03/01 04:41:08;;;;;;;1.50;1.40;;;-2.50;99.90;;;;;;5064085;28;20047;-74
2023/03/01 04:43:34;;;;;;;1.10;1.10;;;-2.70;99.90;;;;;;5059949;28;20086;-74
2023/03/01 04:46:07;;;;;;;1.20;1.20;;;-2.60;99.90;;;;;;5056830;28;20599;-74
2023/03/01 04:48:33;;;;;;;1.10;1.10;;;-2.70;99.90;;;;;;5061868;28;20406;-74
2023/03/01 04:51:00;;;;;;;1.10;1.10;;;-2.60;99.90;;;;;;5065179;28;20071;-74
2023/03/01 04:53:26;;;;;;;1.38;1.35;;;-2.70;99.90;;;;;;5066117;28;20036;-74
2023/03/01 04:55:53;;;;;;;1.30;1.30;;;-2.60;99.90;;;;;;5060718;28;20576;-74
2023/03/01 04:58:19;;;;;;;1.23;1.23;;;-2.70;99.90;;;;;;5062867;28;20044;-74
2023/03/01 05:00:45;;;;;;;1.17;1.17;;;-2.70;99.90;;;;;;5059237;28;20055;-74
2023/03/01 05:03:10;;;;;;;1.20;1.20;;;-2.60;99.90;;;;;;5061868;28;20075;-74
2023/03/01 05:05:38;;;;;;;1.20;1.20;;;-2.90;99.90;;;;;;5063660;28;20184;-74
2023/03/01 05:08:06;;;;;;;1.10;1.10;;;-2.90;99.90;;;;;;5056739;28;20044;-74
2023/03/01 05:10:34;;;;;;;1.25;1.25;;;-2.80;99.90;;;;;;5059238;28;20131;-74
2023/03/01 05:13:01;;;;;;;1.20;1.20;;;-2.80;99.90;;;;;;5061498;28;20835;-74
2023/03/01 05:15:29;;;;;;;1.10;1.10;;;-2.70;99.90;;;;;;5060057;28;20051;-74
2023/03/01 05:17:58;;;;;;;1.30;1.30;;;-2.80;99.90;;;;;;5059298;28;20085;-74
2023/03/01 05:20:24;;;;;;;1.20;1.20;;;-2.80;99.90;;;;;;5060592;28;20043;-74
2023/03/01 05:22:56;;;;;;;1.10;1.10;;;-2.70;99.90;;;;;;5058681;28;20105;-74
2023/03/01 05:25:21;;;;;;;1.30;1.30;;;-2.70;99.90;;;;;;5043737;28;20131;-74
2023/03/01 05:27:48;;;;;;;1.10;1.10;;;-2.80;99.90;;;;;;5057627;28;20405;-74
2023/03/01 05:30:14;;;;;;;1.20;1.20;;;-2.70;99.90;;;;;;5059202;28;20044;-74
2023/03/01 05:32:45;;;;;;;1.05;1.05;;;-2.90;99.90;;;;;;5059516;28;20485;-74
2023/03/01 05:35:13;;;;;;;1.50;1.40;;;-2.90;99.90;;;;;;5058327;28;20220;-74
2023/03/01 05:37:44;;;;;;;1.30;1.30;;;-2.90;99.90;;;;;;5056643;28;20072;-74
2023/03/01 05:40:15;;;;;;;1.30;1.30;;;-2.90;99.90;;;;;;5056810;28;20665;-74
2023/03/01 05:42:59;;;;;;;1.30;1.30;;;-2.90;99.90;;;;;;5056398;28;21046;-75
2023/03/01 05:45:26;;;;;;;1.27;1.27;;;-2.90;99.90;;;;;;5061111;28;20116;-74
2023/03/01 05:47:52;;;;;;;1.30;1.30;;;-3.00;99.90;;;;;;5058336;28;20047;-74
2023/03/01 05:50:25;;;;;;;1.30;1.30;;;-2.90;99.90;;;;;;5061981;28;20052;-75
2023/03/01 05:53:02;;;;;;;2.90;2.75;;;-2.90;99.90;;;;;;5057598;28;20055;-75
2023/03/01 05:55:29;;;;;;;1.30;1.30;;;-2.90;99.90;;;;;;5056636;28;20044;-74
2023/03/01 05:57:57;;;;;;;1.20;1.20;;;-3.00;99.90;;;;;;5059944;28;20044;-75
2023/03/01 06:00:23;;;;;;;1.30;1.30;;;-3.00;99.90;;;;;;5059811;28;20044;-75
2023/03/01 06:02:49;;;;;;;1.20;1.20;;;-3.10;99.90;;;;;;5058355;28;20052;-74
2023/03/01 06:05:15;;;;;;;1.30;1.30;;;-3.00;99.90;;;;;;5058140;28;20075;-75
2023/03/01 06:07:41;;;;;;;1.50;1.40;;;-3.00;99.90;;;;;;5054378;28;20044;-75
2023/03/01 06:10:08;;;;;;;1.30;1.30;;;-2.90;99.90;;;;;;5059926;28;20615;-75
2023/03/01 06:12:36;;;;;;;1.20;1.20;;;-2.90;99.90;;;;;;5060433;28;20430;-75
2023/03/01 06:15:03;;;;;;;1.10;1.10;;;-3.00;99.90;;;;;;5059583;28;20051;-75
2023/03/01 06:17:30;;;;;;;1.30;1.30;;;-3.10;99.90;;;;;;5057399;28;20154;-75
2023/03/01 06:19:56;;;;;;;1.30;1.30;;;-3.10;99.90;;;;;;5061830;28;20039;-75
2023/03/01 06:22:22;;;;;;;1.20;1.20;;;-3.00;99.90;;;;;;5059773;28;20297;-75
2023/03/01 06:24:48;;;;;;;1.20;1.20;;;-2.90;99.90;;;;;;5061888;28;20048;-75
2023/03/01 06:27:13;;;;;;;1.20;1.20;;;-3.00;99.90;;;;;;5058189;28;20059;-75
2023/03/01 06:29:39;;;;;;;1.20;1.20;;;-3.00;99.90;;;;;;5062076;28;20102;-75
2023/03/01 06:32:05;;;;;;;1.20;1.20;;;-2.90;99.90;;;;;;5059717;28;20047;-75
2023/03/01 06:34:31;;;;;;;1.10;1.10;;;-3.00;99.90;;;;;;5058990;28;20047;-75
2023/03/01 06:36:57;;;;;;;1.30;1.30;;;-3.00;99.90;;;;;;5058074;28;20036;-75
2023/03/01 06:39:23;;;;;;;1.30;1.30;;;-2.90;99.90;;;;;;5061626;28;20486;-75
2023/03/01 06:41:48;;;;;;;1.10;1.10;;;-2.80;99.90;;;;;;5062443;28;20112;-75
2023/03/01 06:44:14;;;;;;;1.30;1.30;;;-2.80;99.90;;;;;;5061973;28;20032;-75
2023/03/01 06:46:40;;;;;;;1.20;1.20;;;-2.70;99.90;;;;;;5056723;28;20054;-75
2023/03/01 06:49:09;;;;;;;1.00;1.00;;;-2.90;99.90;;;;;;5059359;28;20043;-76
2023/03/01 06:51:36;;;;;;;1.00;1.00;;;-2.70;99.90;;;;;;5061067;28;20052;-74
2023/03/01 06:54:03;;;;;;;1.30;1.30;;;-2.60;99.90;;;;;;5044901;28;20075;-75
2023/03/01 06:56:29;;;;;;;1.20;1.20;;;-2.50;99.90;;;;;;5054293;28;20047;-76
2023/03/01 06:58:55;;;;;;;1.20;1.20;;;-2.40;99.90;;;;;;5058672;28;20040;-75
2023/03/01 07:01:20;;;;;;;1.10;1.10;;;-2.30;99.90;;;;;;5056209;28;20181;-75
2023/03/01 07:03:46;;;;;;;1.30;1.30;;;-2.10;99.90;;;;;;5059962;28;20488;-75
2023/03/01 07:06:12;;;;;;;1.10;1.10;;;-2.00;99.90;;;;;;5055024;28;20517;-75
2023/03/01 07:08:37;;;;;;;1.30;1.30;;;-1.80;99.90;;;;;;5060909;28;20114;-76
2023/03/01 07:11:03;;;;;;;1.20;1.20;;;-1.70;99.90;;;;;;5060059;28;20040;-75
2023/03/01 07:13:29;;;;;;;1.20;1.20;;;-1.50;99.90;;;;;;5061464;28;20048;-75
2023/03/01 07:15:55;;;;;;;1.20;1.20;;;-1.40;99.90;;;;;;5057866;28;20086;-76
2023/03/01 07:18:21;;;;;;;1.00;1.00;;;-1.40;99.90;;;;;;5061398;28;20143;-76
2023/03/01 07:20:46;;;;;;;0.90;0.90;;;-1.20;99.90;;;;;;5054620;28;20074;-76
2023/03/01 07:23:12;;;;;;;1.10;1.10;;;-0.90;99.90;;;;;;5057073;28;20044;-76
2023/03/01 07:25:38;;;;;;;1.10;1.10;;;-0.90;99.90;;;;;;5054161;28;20044;-76
2023/03/01 07:28:04;;;;;;;1.00;1.00;;;-0.70;99.90;;;;;;5056641;28;20036;-76
2023/03/01 07:30:29;;;;;;;1.10;1.10;;;-0.70;99.90;;;;;;5056847;28;20040;-75
2023/03/01 07:32:57;;;;;;;1.10;1.10;;;-0.60;99.90;;;;;;5046862;28;20047;-76
2023/03/01 07:35:24;;;;;;;1.20;1.20;;;-0.40;99.90;;;;;;5055877;28;20373;-77
2023/03/01 07:37:50;;;;;;;1.00;1.00;;;-0.30;99.90;;;;;;5054635;28;20055;-76
2023/03/01 07:40:16;;;;;;;1.00;1.00;;;-0.10;99.90;;;;;;5061899;28;20559;-76
2023/03/01 07:42:41;;;;;;;1.10;1.10;;;0.00;99.90;;;;;;5070546;28;20050;-76
2023/03/01 07:45:07;;;;;;;1.00;1.00;;;0.20;99.90;;;;;;5074094;28;20052;-76
2023/03/01 07:47:33;;;;;;;1.00;1.00;;;0.30;99.90;;;;;;5068849;28;20051;-76
2023/03/01 07:49:59;;;;;;;1.10;1.10;;;0.40;99.90;;;;;;5071247;28;20044;-77
2023/03/01 07:52:24;;;;;;;1.00;1.00;;;0.50;99.90;;;;;;5069242;28;20048;-77
2023/03/01 07:54:50;;;;;;;1.00;1.00;;;0.60;99.90;;;;;;5074935;28;20036;-77
2023/03/01 07:57:16;;;;;;;1.00;1.00;;;0.80;99.90;;;;;;5071995;28;20048;-77
2023/03/01 07:59:41;;;;;;;1.00;1.00;;;0.80;99.90;;;;;;5076075;28;20073;-76
2023/03/01 08:02:08;;;;;;;0.90;0.90;;;0.80;99.90;;;;;;5080729;28;20052;-77
2023/03/01 08:04:34;;;;;;;0.90;0.90;;;1.10;99.90;;;;;;5079466;28;20105;-77
2023/03/01 08:07:00;;;;;;;1.00;1.00;;;1.10;99.90;;;;;;5074648;28;20122;-76
2023/03/01 08:09:26;;;;;;;0.90;0.90;;;1.30;99.90;;;;;;5078986;28;20119;-76
2023/03/01 08:11:51;;;;;;;0.90;0.90;;;1.40;99.90;;;;;;5081638;28;20044;-76
2023/03/01 08:14:17;;;;;;;0.90;0.90;;;1.60;99.90;;;;;;5080353;28;20048;-76
2023/03/01 08:16:43;;;;;;;0.90;0.90;;;1.70;99.90;;;;;;5079656;28;20050;-75
2023/03/01 08:19:11;;;;;;;0.90;0.90;;;1.90;99.90;;;;;;5077230;28;20048;-76
2023/03/01 08:21:37;;;;;;;0.80;0.80;;;2.00;99.90;;;;;;5080438;28;20097;-76
2023/03/01 08:24:07;;;;;;;0.90;0.90;;;2.10;99.90;;;;;;5081999;28;20040;-76
2023/03/01 08:26:33;;;;;;;0.80;0.80;;;2.30;99.90;;;;;;5077854;28;20110;-76
2023/03/01 08:29:00;;;;;;;0.90;0.90;;;2.40;99.90;;;;;;5076872;28;20044;-76
2023/03/01 08:31:37;;;;;;;0.80;0.80;;;2.30;99.90;;;;;;5078204;28;20052;-76
2023/03/01 08:34:10;;;;;;;0.90;0.90;;;2.80;99.90;;;;;;5081494;28;20810;-77
2023/03/01 08:36:41;;;;;;;0.90;0.90;;;3.00;99.90;;;;;;5076151;28;20085;-76
2023/03/01 08:39:08;;;;;;;0.80;0.80;;;3.00;99.90;;;;;;5077812;28;20502;-76
2023/03/01 08:41:34;;;;;;;0.80;0.80;;;3.00;99.90;;;;;;5076691;28;20096;-76
2023/03/01 08:44:00;;;;;;;0.80;0.80;;;3.40;99.90;;;;;;5080365;28;20044;-76
2023/03/01 08:46:35;;;;;;;0.70;0.70;;;3.50;99.90;;;;;;5074173;28;20044;-77
2023/03/01 08:49:05;;;;;;;0.70;0.70;;;3.40;99.90;;;;;;5080113;28;20113;-76
2023/03/01 08:51:36;;;;;;;0.73;0.73;;;3.70;99.90;;;;;;5081166;28;20050;-76
2023/03/01 08:54:03;;;;;;;0.70;0.70;;;3.70;99.90;;;;;;5076615;28;20680;-76
2023/03/01 08:56:29;;;;;;;0.70;0.70;;;4.00;99.90;;;;;;5077123;28;20119;-76
2023/03/01 08:58:54;;;;;;;0.70;0.70;;;3.80;99.90;;;;;;5076546;28;20048;-76
2023/03/01 09:01:20;;;;;;;0.70;0.70;;;4.00;99.90;;;;;;5078441;28;20108;-76
2023/03/01 09:03:46;;;;;;;0.70;0.70;;;4.20;99.90;;;;;;5073944;28;20109;-76
2023/03/01 09:06:12;;;;;;;0.70;0.70;;;4.40;99.90;;;;;;5068513;28;20090;-77
2023/03/01 09:08:40;;;;;;;0.70;0.70;;;4.60;99.90;;;;;;5062141;28;20050;-76
2023/03/01 09:11:08;;;;;;;0.70;0.70;;;4.70;99.90;;;;;;5070372;28;20514;-76
2023/03/01 09:13:34;;;;;;;0.60;0.60;;;5.10;99.90;;;;;;5077160;28;20044;-76
2023/03/01 09:16:02;;;;;;;0.70;0.70;;;5.50;99.90;;;;;;5077030;28;20079;-76
2023/03/01 09:18:28;;;;;;;0.70;0.70;;;5.00;99.90;;;;;;5080212;28;20040;-76
2023/03/01 09:21:00;;;;;;;0.70;0.70;;;5.30;99.90;;;;;;5076173;28;20040;-76
2023/03/01 09:23:26;;;;;;;0.70;0.70;;;4.90;99.90;;;;;;5079845;28;20107;-75
2023/03/01 09:25:52;;;;;;;0.60;0.60;;;5.30;99.90;;;;;;5078909;28;20089;-76
2023/03/01 09:28:18;;;;;;;0.70;0.70;;;5.40;99.90;;;;;;5076698;28;20123;-75
2023/03/01 09:30:44;;;;;;;0.60;0.60;;;5.30;99.90;;;;;;5074348;28;20918;-76
2023/03/01 09:33:14;;;;;;;0.60;0.60;;;5.80;99.90;;;;;;5075812;28;20595;-76
2023/03/01 09:35:45;;;;;;;0.70;0.70;;;5.10;99.90;;;;;;5080083;28;20180;-76
2023/03/01 09:38:12;;;;;;;0.70;0.70;;;5.20;99.90;;;;;;5074551;28;20051;-76
2023/03/01 09:40:42;;;;;;;0.70;0.70;;;5.20;99.90;;;;;;5078715;28;20052;-76
2023/03/01 09:43:37;;;;;;;0.70;0.70;;;5.70;99.90;;;;;;5078738;28;20059;-76
2023/03/01 09:46:09;;;;;;;0.70;0.70;;;5.60;99.90;;;;;;5072728;28;20083;-76
2023/03/01 09:48:45;;;;;;;0.70;0.70;;;5.80;99.90;;;;;;5064277;28;20044;-76
2023/03/01 09:51:23;;;;;;;0.70;0.70;;;6.60;99.90;;;;;;5068380;28;20052;-76
2023/03/01 09:53:49;;;;;;;0.60;0.60;;;6.00;99.90;;;;;;5070324;28;20044;-76
2023/03/01 09:56:15;;;;;;;0.70;0.70;;;6.20;99.90;;;;;;5077164;28;20101;-76
2023/03/01 09:59:13;;;;;;;0.60;0.60;;;5.80;99.90;;;;;;5073089;28;20523;-76
2023/03/01 10:01:48;;;;;;;0.60;0.60;;;6.50;99.90;;;;;;5055162;28;20213;-76
2023/03/01 10:04:25;;;;;;;0.60;0.60;;;6.00;99.90;;;;;;5075109;28;20051;-76
2023/03/01 10:07:02;;;;;;;0.65;0.65;;;6.00;99.90;;;;;;5077120;28;20497;-76
2023/03/01 10:09:33;;;;;;;0.70;0.70;;;6.20;99.90;;;;;;5071579;28;20109;-76
2023/03/01 10:12:02;;;;;;;0.60;0.60;;;6.70;99.90;;;;;;5068716;28;20063;-77
2023/03/01 10:14:52;;;;;;;0.70;0.70;;;6.90;99.90;;;;;;5071979;28;20112;-77
2023/03/01 10:17:33;;;;;;;0.60;0.60;;;6.60;99.90;;;;;;5065671;28;20059;-76
2023/03/01 10:20:19;;;;;;;0.60;0.60;;;6.80;99.90;;;;;;5054943;28;20502;-76
2023/03/01 10:22:52;;;;;;;0.60;0.60;;;6.50;99.90;;;;;;5057488;28;20040;-77
2023/03/01 10:25:35;;;;;;;0.70;0.70;;;6.50;99.90;;;;;;5063075;28;20502;-77
2023/03/01 10:28:10;;;;;;;0.70;0.70;;;6.60;99.90;;;;;;5058257;28;20040;-77
2023/03/01 10:30:39;;;;;;;0.70;0.70;;;6.20;99.90;;;;;;5063798;28;20058;-76
2023/03/01 10:33:19;;;;;;;0.70;0.70;;;6.90;99.90;;;;;;5071256;28;20054;-77
2023/03/01 10:35:44;;;;;;;0.60;0.60;;;7.00;99.90;;;;;;5067715;28;20047;-77
2023/03/01 10:38:13;;;;;;;0.70;0.70;;;6.80;99.90;;;;;;5065411;28;20170;-77
2023/03/01 10:40:54;;;;;;;0.60;0.60;;;6.80;99.90;;;;;;5072460;28;20059;-77
2023/03/01 10:43:20;;;;;;;0.70;0.70;;;6.60;99.90;;;;;;5073874;28;20575;-76
2023/03/01 10:45:46;;;;;;;0.70;0.70;;;6.60;99.90;;;;;;5069206;28;20050;-77
2023/03/01 10:48:16;;;;;;;0.70;0.70;;;7.00;99.90;;;;;;5071543;28;20054;-77
2023/03/01 10:50:50;;;;;;;0.70;0.70;;;6.70;99.90;;;;;;5073377;28;20043;-77
2023/03/01 10:53:38;;;;;;;0.70;0.70;;;6.50;99.90;;;;;;5070458;28;20177;-77
2023/03/01 10:56:08;;;;;;;0.70;0.70;;;6.70;99.90;;;;;;5070518;28;20071;-76
2023/03/01 10:58:37;;;;;;;0.70;0.70;;;6.80;99.90;;;;;;5066180;28;20123;-76
2023/03/01 11:01:24;;;;;;;0.60;0.60;;;7.30;99.90;;;;;;5072076;28;20053;-76
2023/03/01 11:04:11;;;;;;;0.70;0.70;;;7.20;99.90;;;;;;5071694;28;20471;-76
2023/03/01 11:06:39;;;;;;;0.70;0.70;;;7.10;99.90;;;;;;5069863;28;20050;-76
2023/03/01 11:09:22;;;;;;;0.70;0.70;;;7.00;99.90;;;;;;5068743;28;20062;-76
2023/03/01 11:11:56;;;;;;;0.70;0.70;;;7.30;99.90;;;;;;5067780;28;20118;-76
2023/03/01 11:14:30;;;;;;;0.70;0.70;;;6.80;99.90;;;;;;5070004;28;20436;-77
2023/03/01 11:17:03;;;;;;;0.95;0.95;;;7.00;99.90;;;;;;5068969;28;20118;-77
2023/03/01 11:19:29;;;;;;;0.70;0.70;;;7.20;99.90;;;;;;5066845;28;20085;-77
2023/03/01 11:22:07;;;;;;;0.70;0.70;;;6.90;99.90;;;;;;5070585;28;20096;-76
2023/03/01 11:24:48;;;;;;;0.60;0.60;;;7.20;99.90;;;;;;5069008;28;20043;-76
2023/03/01 11:27:17;;;;;;;0.70;0.70;;;7.30;99.90;;;;;;5065477;28;20048;-77
2023/03/01 11:29:55;;;;;;;0.60;0.60;;;7.30;99.90;;;;;;5066154;28;20097;-76
2023/03/01 11:32:26;;;;;;;0.70;0.70;;;7.40;99.90;;;;;;5070812;28;20130;-76
2023/03/01 11:35:02;;;;;;;0.70;0.70;;;7.40;99.90;;;;;;5067030;28;20066;-76
2023/03/01 11:37:48;;;;;;;0.70;0.70;;;7.50;99.90;;;;;;5065472;28;20737;-76
2023/03/01 11:40:25;;;;;;;0.70;0.70;;;7.20;99.90;;;;;;5072144;28;20553;-76
2023/03/01 11:42:56;;;;;;;0.60;0.60;;;7.30;99.90;;;;;;5069185;28;20032;-76
2023/03/01 11:45:26;;;;;;;0.60;0.60;;;7.70;99.90;;;;;;5072138;28;20166;-76
2023/03/01 11:48:33;;;;;;;0.60;0.60;;;7.70;99.90;;;;;;5067167;28;20212;-76
2023/03/01 11:51:05;;;;;;;0.60;0.60;;;7.50;99.90;;;;;;5072148;28;20052;-76
2023/03/01 11:53:36;;;;;;;0.60;0.60;;;7.50;99.90;;;;;;5065302;28;20512;-76
2023/03/01 11:56:07;;;;;;;0.60;0.60;;;7.20;99.90;;;;;;5064440;28;20143;-76
2023/03/01 11:58:52;;;;;;;0.70;0.70;;;7.50;99.90;;;;;;5059681;28;20051;-76
2023/03/01 12:01:43;;;;;;;0.70;0.70;;;7.50;99.90;;;;;;5070126;28;20044;-76
2023/03/01 12:04:48;;;;;;;0.70;0.70;;;7.90;99.90;;;;;;5062525;28;20078;-77
2023/03/01 12:07:32;;;;;;;0.70;0.70;;;7.70;99.90;;;;;;5061347;28;20497;-76
2023/03/01 12:10:31;;;;;;;0.70;0.70;;;8.00;99.90;;;;;;5063332;28;20101;-76
2023/03/01 12:13:12;;;;;;;0.70;0.70;;;7.80;99.90;;;;;;5065074;28;20178;-76
2023/03/01 12:15:43;;;;;;;0.68;0.68;;;7.80;99.90;;;;;;5058437;28;20246;-76
2023/03/01 12:18:16;;;;;;;0.70;0.70;;;7.90;99.90;;;;;;5068729;28;20524;-76
2023/03/01 12:20:45;;;;;;;;;;;8.40;99.90;;;;;;5077191;28;20044;-76
2023/03/01 12:23:26;;;;;;;0.70;0.70;;;8.50;99.90;;;;;;5074998;28;19989;-76
2023/03/01 12:26:08;;;;;;;0.70;0.70;;;8.20;99.90;;;;;;5065792;28;20060;-76
2023/03/01 12:28:55;;;;;;;0.60;0.60;;;8.50;99.90;;;;;;5067392;28;20048;-76
2023/03/01 12:31:58;;;;;;;0.60;0.60;;;8.60;99.90;;;;;;5071707;28;20046;-76
2023/03/01 12:34:52;;;;;;;0.60;0.60;;;8.60;99.90;;;;;;5078294;28;20139;-76
2023/03/01 12:37:41;;;;;;;0.60;0.60;;;8.80;99.90;;;;;;5077863;28;20046;-76
2023/03/01 12:40:20;;;;;;;0.60;0.60;;;8.30;99.90;;;;;;5069981;28;20052;-76
2023/03/01 12:42:51;;;;;;;0.60;0.60;;;7.90;99.90;;;;;;5068359;28;20067;-76
2023/03/01 12:45:51;;;;;;;0.60;0.60;;;8.70;99.90;;;;;;5063832;28;20048;-76
2023/03/01 12:48:19;;;;;;;0.60;0.60;;;8.80;99.90;;;;;;5071433;28;20039;-76
2023/03/01 12:50:53;;;;;;;0.60;0.60;;;8.20;99.90;;;;;;5072635;28;20127;-76
2023/03/01 12:53:25;;;;;;;0.68;0.68;;;8.10;99.90;;;;;;5059287;28;20155;-77
2023/03/01 12:55:53;;;;;;;0.70;0.70;;;8.00;99.90;;;;;;5064917;28;20051;-75
2023/03/01 12:58:30;;;;;;;0.70;0.70;;;8.60;99.90;;;;;;5073958;28;20040;-76
2023/03/01 13:01:22;;;;;;;0.70;0.70;;;8.80;99.90;;;;;;5074036;28;20047;-76
2023/03/01 13:04:01;;;;;;;0.60;0.60;;;8.80;99.90;;;;;;5078871;28;20087;-76
2023/03/01 13:06:40;;;;;;;0.70;0.70;;;8.30;99.90;;;;;;5075463;28;20052;-76
2023/03/01 13:09:06;;;;;;;0.70;0.70;;;8.60;99.90;;;;;;5077970;28;20181;-76
2023/03/01 13:11:34;;;;;;;0.70;0.70;;;9.00;99.90;;;;;;5075619;28;20056;-76